Time;durP1;ratioP1;P1;durP2;ratioP2;P2;SDS_P1;SDS_P2;PMS_P1;PMS_P2;Temp;Humidity;BMP_temperature;BMP_pressure;BME280_temperature;BME280_humidity;BME280_pressure;Samples;Min_cycle;Max_cycle;Signal;HPM_P1;HPM_P2
2022/11/02 00:01:48;;;;;;;1999.90;999.90;;;12.40;99.90;;;;;;5011022;28;20484;-71
2022/11/02 00:04:15;;;;;;;1999.90;999.90;;;12.40;99.90;;;;;;5010341;28;20474;-68
2022/11/02 00:06:43;;;;;;;1999.90;999.90;;;12.40;99.90;;;;;;5010937;28;20480;-67
2022/11/02 00:09:11;;;;;;;1999.90;999.90;;;12.30;99.90;;;;;;5011986;28;20459;-68
2022/11/02 00:11:39;;;;;;;1999.90;999.90;;;12.30;99.90;;;;;;5011380;28;20459;-66
2022/11/02 00:14:05;;;;;;;1999.90;999.90;;;12.30;99.90;;;;;;5011357;28;20471;-67
2022/11/02 00:16:33;;;;;;;1999.90;999.90;;;12.30;99.90;;;;;;5010441;28;20475;-68
2022/11/02 00:19:01;;;;;;;1999.90;999.90;;;12.30;99.90;;;;;;5011581;28;20490;-69
2022/11/02 00:21:28;;;;;;;1999.90;999.90;;;12.30;99.90;;;;;;5010165;28;20499;-69
2022/11/02 00:23:57;;;;;;;1999.90;999.90;;;12.30;99.90;;;;;;5011947;28;20464;-68
2022/11/02 00:26:27;;;;;;;1999.90;999.90;;;12.30;99.90;;;;;;5008895;28;20480;-69
2022/11/02 00:28:55;;;;;;;1999.90;999.90;;;12.20;99.90;;;;;;5014414;28;20465;-68
2022/11/02 00:31:21;;;;;;;1999.90;999.90;;;12.20;99.90;;;;;;5010336;28;20843;-68
2022/11/02 00:33:48;;;;;;;1999.90;999.90;;;12.30;99.90;;;;;;5015101;28;20460;-68
2022/11/02 00:36:16;;;;;;;1999.90;999.90;;;12.20;99.90;;;;;;5013119;28;20500;-68
2022/11/02 00:38:43;;;;;;;1999.90;999.90;;;12.20;99.90;;;;;;5009199;28;20460;-67
2022/11/02 00:41:11;;;;;;;1999.90;999.90;;;12.20;99.90;;;;;;5010744;28;20483;-68
2022/11/02 00:43:39;;;;;;;1999.90;999.90;;;12.20;99.90;;;;;;5010208;28;20478;-67
2022/11/02 00:46:06;;;;;;;1999.90;999.90;;;12.20;99.90;;;;;;5010512;28;20530;-68
2022/11/02 00:48:33;;;;;;;1999.90;999.90;;;12.20;99.90;;;;;;5010494;28;20460;-68
2022/11/02 00:51:00;;;;;;;1999.90;999.90;;;12.30;99.90;;;;;;5011311;28;20955;-68
2022/11/02 00:53:27;;;;;;;1999.90;999.90;;;12.20;99.90;;;;;;5009427;28;20947;-68
2022/11/02 00:55:53;;;;;;;1999.90;999.90;;;12.20;99.90;;;;;;5012445;28;20491;-68
2022/11/02 00:58:20;;;;;;;1999.90;999.90;;;12.30;99.90;;;;;;5009688;28;20464;-68
2022/11/02 01:00:48;;;;;;;1999.90;999.90;;;12.30;99.90;;;;;;5013812;28;20480;-68
2022/11/02 01:03:15;;;;;;;1999.90;999.90;;;12.20;99.90;;;;;;5003928;28;20564;-68
2022/11/02 01:05:42;;;;;;;1999.90;999.90;;;12.10;99.90;;;;;;5010979;28;20472;-68
2022/11/02 01:08:09;;;;;;;1999.90;999.90;;;12.10;99.90;;;;;;5010884;28;20464;-68
2022/11/02 01:10:36;;;;;;;1999.90;999.90;;;12.10;99.90;;;;;;5013832;28;20475;-67
2022/11/02 01:13:03;;;;;;;1999.90;999.90;;;12.10;99.90;;;;;;5017818;28;20471;-65
2022/11/02 01:15:29;;;;;;;1999.90;999.90;;;12.10;99.90;;;;;;5018980;28;20552;-67
2022/11/02 01:17:58;;;;;;;1999.90;999.90;;;12.10;99.90;;;;;;5011457;28;20463;-68
2022/11/02 01:20:24;;;;;;;1999.90;999.90;;;12.10;99.90;;;;;;5016528;28;20472;-69
2022/11/02 01:22:51;;;;;;;1999.90;999.90;;;12.10;99.90;;;;;;5014819;28;20470;-67
2022/11/02 01:25:18;;;;;;;1999.90;999.90;;;12.00;99.90;;;;;;5011480;28;20475;-68
2022/11/02 01:27:45;;;;;;;1999.90;999.90;;;11.90;99.90;;;;;;5013646;28;20466;-67
2022/11/02 01:30:13;;;;;;;1999.90;999.90;;;11.80;99.90;;;;;;5014038;28;20472;-66
2022/11/02 01:32:40;;;;;;;1999.90;999.90;;;11.80;99.90;;;;;;5015646;28;20440;-67
2022/11/02 01:35:09;;;;;;;1999.90;999.90;;;11.70;99.90;;;;;;5016769;28;20951;-66
2022/11/02 01:37:36;;;;;;;1999.90;999.90;;;11.60;99.90;;;;;;5020827;28;20487;-67
2022/11/02 01:40:03;;;;;;;1999.90;999.90;;;11.50;99.90;;;;;;5014345;28;20470;-67
2022/11/02 01:42:29;;;;;;;1999.90;999.90;;;11.30;99.90;;;;;;5013032;28;20488;-72
2022/11/02 01:44:56;;;;;;;1999.90;999.90;;;11.40;99.90;;;;;;5013743;28;20460;-67
2022/11/02 01:47:26;;;;;;;1999.90;999.90;;;11.40;99.90;;;;;;5015430;28;20479;-68
2022/11/02 01:49:57;;;;;;;1999.90;999.90;;;11.40;99.90;;;;;;5018807;28;20456;-67
2022/11/02 01:52:29;;;;;;;1999.90;999.90;;;11.40;99.90;;;;;;5015361;28;20997;-67
2022/11/02 01:55:02;;;;;;;1999.90;999.90;;;11.40;99.90;;;;;;5008876;28;20464;-67
2022/11/02 01:57:32;;;;;;;1999.90;999.90;;;11.30;99.90;;;;;;5013637;28;20470;-68
2022/11/02 02:00:04;;;;;;;1999.90;999.90;;;11.30;99.90;;;;;;5014756;28;20463;-67
2022/11/02 02:02:34;;;;;;;1999.90;999.90;;;11.20;99.90;;;;;;5011898;28;20475;-69
2022/11/02 02:05:05;;;;;;;1999.90;999.90;;;11.30;99.90;;;;;;5009504;28;20464;-69
2022/11/02 02:07:35;;;;;;;1999.90;999.90;;;11.40;99.90;;;;;;5013190;28;20460;-68
2022/11/02 02:10:02;;;;;;;1999.90;999.90;;;11.40;99.90;;;;;;5013973;28;20464;-68
2022/11/02 02:12:31;;;;;;;1999.90;999.90;;;11.50;99.90;;;;;;5012976;28;20456;-67
2022/11/02 02:14:59;;;;;;;1999.90;999.90;;;11.30;99.90;;;;;;5008583;28;20452;-68
2022/11/02 02:17:35;;;;;;;1999.90;999.90;;;11.20;99.90;;;;;;5010748;28;20480;-68
2022/11/02 02:20:10;;;;;;;1999.90;999.90;;;11.20;99.90;;;;;;5010076;28;20463;-68
2022/11/02 02:23:31;;;;;;;1999.90;999.90;;;11.40;99.90;;;;;;5021976;28;20914;-69
2022/11/02 02:26:43;;;;;;;1999.90;999.90;;;11.60;99.90;;;;;;4936540;28;20479;-67
2022/11/02 02:29:19;;;;;;;1999.90;999.90;;;11.70;99.90;;;;;;5011539;28;20467;-69
2022/11/02 02:31:55;;;;;;;1999.90;999.90;;;11.70;99.90;;;;;;5012497;28;20458;-68
2022/11/02 02:34:27;;;;;;;1999.90;999.90;;;11.60;99.90;;;;;;5011941;28;20460;-67
2022/11/02 02:37:01;;;;;;;1999.90;999.90;;;11.70;99.90;;;;;;5011229;28;20631;-68
2022/11/02 02:39:34;;;;;;;1999.90;999.90;;;11.50;99.90;;;;;;5013031;28;20463;-69
2022/11/02 02:42:07;;;;;;;1999.90;999.90;;;11.40;99.90;;;;;;5003853;28;20493;-68
2022/11/02 02:44:39;;;;;;;1999.90;999.90;;;11.40;99.90;;;;;;5011299;28;20456;-66
2022/11/02 02:47:11;;;;;;;1999.90;999.90;;;11.40;99.90;;;;;;5011312;28;20498;-67
2022/11/02 02:49:47;;;;;;;1999.90;999.90;;;11.50;99.90;;;;;;5012234;28;20464;-68
2022/11/02 02:52:18;;;;;;;1999.90;999.90;;;11.40;99.90;;;;;;5013287;28;20844;-67
2022/11/02 02:54:47;;;;;;;1999.90;999.90;;;11.30;99.90;;;;;;5012228;28;20448;-68
2022/11/02 02:57:17;;;;;;;1999.90;999.90;;;11.40;99.90;;;;;;5015066;28;20484;-68
2022/11/02 02:59:47;;;;;;;1999.90;999.90;;;11.30;99.90;;;;;;5012915;28;20475;-68
2022/11/02 03:02:18;;;;;;;1999.90;999.90;;;11.30;99.90;;;;;;5013160;28;21049;-68
2022/11/02 03:04:45;;;;;;;1999.90;999.90;;;11.20;99.90;;;;;;5015129;28;20463;-66
2022/11/02 03:07:18;;;;;;;1999.90;999.90;;;11.30;99.90;;;;;;5012191;28;20475;-66
2022/11/02 03:09:50;;;;;;;1999.90;999.90;;;11.40;99.90;;;;;;5014325;28;20459;-69
2022/11/02 03:12:28;;;;;;;1999.90;999.90;;;11.30;99.90;;;;;;5014787;28;20554;-70
2022/11/02 03:15:09;;;;;;;1999.90;999.90;;;11.20;99.90;;;;;;5012593;28;20817;-68
2022/11/02 03:17:45;;;;;;;1999.90;999.90;;;11.20;99.90;;;;;;5010711;28;20539;-68
2022/11/02 03:20:20;;;;;;;1999.90;999.90;;;11.20;99.90;;;;;;5015204;28;20455;-67
2022/11/02 03:22:55;;;;;;;1999.90;999.90;;;11.20;99.90;;;;;;5012215;28;20484;-69
2022/11/02 03:25:28;;;;;;;1999.90;999.90;;;11.40;99.90;;;;;;5011434;28;20463;-67
2022/11/02 03:28:02;;;;;;;1999.90;999.90;;;11.40;99.90;;;;;;5010334;28;20463;-67
2022/11/02 03:30:36;;;;;;;1999.90;999.90;;;11.40;99.90;;;;;;5014251;28;20890;-67
2022/11/02 03:33:07;;;;;;;1999.90;999.90;;;11.50;99.90;;;;;;5010676;28;20463;-66
2022/11/02 03:35:41;;;;;;;1999.90;999.90;;;11.50;99.90;;;;;;5010745;28;20488;-67
2022/11/02 03:38:13;;;;;;;1999.90;999.90;;;11.40;99.90;;;;;;5005205;28;20456;-67
2022/11/02 03:40:45;;;;;;;1999.90;999.90;;;11.50;99.90;;;;;;5010775;28;21031;-67
2022/11/02 03:43:13;;;;;;;1999.90;999.90;;;11.60;99.90;;;;;;5014245;28;20468;-67
2022/11/02 03:45:46;;;;;;;1999.90;999.90;;;11.70;99.90;;;;;;5006122;28;20564;-68
2022/11/02 03:48:14;;;;;;;1999.90;999.90;;;11.80;99.90;;;;;;5010453;28;20456;-67
2022/11/02 03:50:46;;;;;;;1999.90;999.90;;;11.70;99.90;;;;;;5012938;28;21428;-68
2022/11/02 03:53:18;;;;;;;1999.90;999.90;;;11.50;99.90;;;;;;5011074;28;20956;-67
2022/11/02 03:55:50;;;;;;;1999.90;999.90;;;11.70;99.90;;;;;;5010782;28;20479;-66
2022/11/02 03:58:17;;;;;;;1999.90;999.90;;;11.90;99.90;;;;;;5011676;28;20464;-67
2022/11/02 04:00:50;;;;;;;1999.90;999.90;;;11.80;99.90;;;;;;5011184;28;20471;-67
2022/11/02 04:03:18;;;;;;;1999.90;999.90;;;11.90;99.90;;;;;;5010095;28;20479;-67
2022/11/02 04:05:45;;;;;;;1999.90;999.90;;;11.90;99.90;;;;;;5001785;28;20494;-66
2022/11/02 04:08:23;;;;;;;1999.90;999.90;;;12.10;99.90;;;;;;5009677;28;20464;-67
2022/11/02 04:16:22;;;;;;;1999.90;999.90;;;12.10;99.90;;;;;;5009384;28;20475;-69
2022/11/02 04:21:33;;;;;;;1999.90;999.90;;;12.10;99.90;;;;;;5008131;28;20490;-71
2022/11/02 04:26:50;;;;;;;1999.90;999.90;;;12.10;99.90;;;;;;4957928;28;20518;-68
2022/11/02 04:29:16;;;;;;;1999.90;999.90;;;12.00;99.90;;;;;;5008189;28;20464;-67
2022/11/02 04:31:45;;;;;;;1999.90;999.90;;;11.90;99.90;;;;;;5013408;28;20960;-70
2022/11/02 04:34:10;;;;;;;1999.90;999.90;;;12.00;99.90;;;;;;5011837;28;20460;-67
2022/11/02 04:36:37;;;;;;;1999.90;999.90;;;12.00;99.90;;;;;;5002058;28;20506;-67
2022/11/02 04:39:03;;;;;;;1999.90;999.90;;;12.10;99.90;;;;;;5009129;28;20295;-67
2022/11/02 04:41:42;;;;;;;1999.90;999.90;;;12.10;99.90;;;;;;5009954;28;20546;-67
2022/11/02 04:44:09;;;;;;;1999.90;999.90;;;12.20;99.90;;;;;;5012863;28;20456;-68
2022/11/02 04:46:37;;;;;;;1999.90;999.90;;;12.30;99.90;;;;;;5014659;28;20476;-68
2022/11/02 04:49:06;;;;;;;1999.90;999.90;;;12.30;99.90;;;;;;5011873;28;20523;-68
2022/11/02 04:51:33;;;;;;;1999.90;999.90;;;12.40;99.90;;;;;;5013184;28;20456;-67
2022/11/02 04:54:01;;;;;;;1999.90;999.90;;;12.30;99.90;;;;;;5016796;28;20464;-67
2022/11/02 04:56:29;;;;;;;1999.90;999.90;;;12.10;99.90;;;;;;5011946;28;20487;-66
2022/11/02 04:58:57;;;;;;;1999.90;999.90;;;11.90;99.90;;;;;;5014214;28;20499;-68
2022/11/02 05:01:26;;;;;;;1999.90;999.90;;;11.80;99.90;;;;;;5013733;28;20459;-66
2022/11/02 05:03:54;;;;;;;1999.90;999.90;;;11.90;99.90;;;;;;5014519;28;20464;-64
2022/11/02 05:06:23;;;;;;;1999.90;999.90;;;11.90;99.90;;;;;;5012888;28;22329;-69
2022/11/02 05:08:50;;;;;;;1999.90;999.90;;;11.90;99.90;;;;;;5014330;28;20475;-67
2022/11/02 05:11:17;;;;;;;1999.90;999.90;;;12.00;99.90;;;;;;5014081;28;20462;-70
2022/11/02 05:13:44;;;;;;;1999.90;999.90;;;12.00;99.90;;;;;;5012764;28;20559;-67
2022/11/02 05:16:13;;;;;;;1999.90;999.90;;;12.00;99.90;;;;;;5014336;28;21035;-65
2022/11/02 05:18:40;;;;;;;1999.90;999.90;;;11.90;99.90;;;;;;5013204;28;20464;-67
2022/11/02 05:21:07;;;;;;;1999.90;999.90;;;11.90;99.90;;;;;;5011089;28;20916;-69
2022/11/02 05:23:35;;;;;;;1999.90;999.90;;;11.90;99.90;;;;;;5012156;28;20483;-70
2022/11/02 05:26:04;;;;;;;1999.90;999.90;;;12.00;99.90;;;;;;5015887;28;20507;-67
2022/11/02 05:28:32;;;;;;;1999.90;999.90;;;11.90;99.90;;;;;;5011768;28;20456;-65
2022/11/02 05:31:00;;;;;;;1999.90;999.90;;;11.80;99.90;;;;;;5013990;28;20487;-69
2022/11/02 05:33:28;;;;;;;1999.90;999.90;;;11.80;99.90;;;;;;5013105;28;20459;-71
2022/11/02 05:35:55;;;;;;;1999.90;999.90;;;11.80;99.90;;;;;;5015177;28;20483;-68
2022/11/02 05:38:23;;;;;;;1999.90;999.90;;;11.80;99.90;;;;;;5023300;28;20469;-68
2022/11/02 05:40:53;;;;;;;1999.90;999.90;;;11.70;99.90;;;;;;5011848;28;20467;-68
2022/11/02 05:43:20;;;;;;;1999.90;999.90;;;11.70;99.90;;;;;;5014723;28;20498;-67
2022/11/02 05:45:53;;;;;;;1999.90;999.90;;;11.70;99.90;;;;;;5012226;28;20484;-68
2022/11/02 05:48:19;;;;;;;1999.90;999.90;;;11.80;99.90;;;;;;5012433;28;20506;-67
2022/11/02 05:50:46;;;;;;;1999.90;999.90;;;12.00;99.90;;;;;;5017619;28;20475;-65
2022/11/02 05:53:13;;;;;;;1999.90;999.90;;;11.70;99.90;;;;;;5014749;28;20452;-68
2022/11/02 05:55:40;;;;;;;1999.90;999.90;;;11.70;99.90;;;;;;5010471;28;20488;-67
2022/11/02 05:58:08;;;;;;;1999.90;999.90;;;11.50;99.90;;;;;;5012147;28;20471;-71
2022/11/02 06:00:35;;;;;;;1999.90;999.90;;;12.00;99.90;;;;;;5015526;28;20464;-70
2022/11/02 06:03:02;;;;;;;1999.90;999.90;;;11.50;99.90;;;;;;5013075;28;20996;-69
2022/11/02 06:05:28;;;;;;;1999.90;999.90;;;11.50;99.90;;;;;;5012525;28;20486;-67
2022/11/02 06:07:58;;;;;;;1999.90;999.90;;;11.70;99.90;;;;;;5011588;28;20498;-69
2022/11/02 06:10:25;;;;;;;1999.90;999.90;;;11.60;99.90;;;;;;5013540;28;20460;-65
2022/11/02 06:12:55;;;;;;;1999.90;999.90;;;11.70;99.90;;;;;;5013014;28;20458;-68
2022/11/02 06:15:24;;;;;;;1999.90;999.90;;;11.80;99.90;;;;;;5012286;28;20959;-70
2022/11/02 06:17:51;;;;;;;1999.90;999.90;;;11.80;99.90;;;;;;5012360;28;20582;-65
2022/11/02 06:20:19;;;;;;;1999.90;999.90;;;11.80;99.90;;;;;;5013375;28;20463;-67
2022/11/02 06:22:46;;;;;;;1999.90;999.90;;;11.70;99.90;;;;;;5012274;28;20492;-69
2022/11/02 06:25:13;;;;;;;1999.90;999.90;;;11.70;99.90;;;;;;5012598;28;20845;-68
2022/11/02 06:27:41;;;;;;;1999.90;999.90;;;11.80;99.90;;;;;;5010073;28;20472;-69
2022/11/02 06:30:09;;;;;;;1999.90;999.90;;;11.80;99.90;;;;;;5014504;28;20471;-67
2022/11/02 06:32:37;;;;;;;1999.90;999.90;;;11.70;99.90;;;;;;5011316;28;20955;-70
2022/11/02 06:35:05;;;;;;;1999.90;999.90;;;11.70;99.90;;;;;;5011463;28;20460;-66
2022/11/02 06:37:34;;;;;;;1999.90;999.90;;;11.60;99.90;;;;;;5013452;28;20471;-72
2022/11/02 06:40:01;;;;;;;1999.90;999.90;;;11.70;99.90;;;;;;5012037;28;20460;-66
2022/11/02 06:42:28;;;;;;;1999.90;999.90;;;11.70;99.90;;;;;;5014077;28;20480;-68
2022/11/02 06:45:01;;;;;;;1999.90;999.90;;;11.70;99.90;;;;;;5009426;28;20459;-67
2022/11/02 06:47:30;;;;;;;1999.90;999.90;;;11.80;99.90;;;;;;5009572;28;20492;-65
2022/11/02 06:49:59;;;;;;;1999.90;999.90;;;11.80;99.90;;;;;;5013114;28;20514;-69
2022/11/02 06:52:26;;;;;;;1999.90;999.90;;;11.90;99.90;;;;;;5014003;28;20459;-67
2022/11/02 06:54:52;;;;;;;1999.90;999.90;;;11.80;99.90;;;;;;5014339;28;20459;-67
2022/11/02 06:57:19;;;;;;;1999.90;999.90;;;11.90;99.90;;;;;;5015574;28;20470;-68
2022/11/02 06:59:46;;;;;;;1999.90;999.90;;;11.90;99.90;;;;;;5015076;28;20472;-67
2022/11/02 07:02:13;;;;;;;1999.90;999.90;;;11.90;99.90;;;;;;5025065;28;20448;-65
2022/11/02 07:04:40;;;;;;;1999.90;999.90;;;12.00;99.90;;;;;;5035099;28;20479;-67
2022/11/02 07:07:08;;;;;;;1999.90;999.90;;;12.10;99.90;;;;;;5034762;28;20459;-67
2022/11/02 07:09:35;;;;;;;1999.90;999.90;;;12.10;99.90;;;;;;5026254;28;20455;-68
2022/11/02 07:12:02;;;;;;;1999.90;999.90;;;12.20;99.90;;;;;;5024496;28;20459;-69
2022/11/02 07:14:29;;;;;;;1999.90;999.90;;;12.20;99.90;;;;;;5025875;28;20439;-68
2022/11/02 07:16:56;;;;;;;1999.90;999.90;;;12.30;99.90;;;;;;5034167;28;20471;-67
2022/11/02 07:19:23;;;;;;;1999.90;999.90;;;12.40;99.90;;;;;;5026552;28;20455;-69
2022/11/02 07:21:50;;;;;;;1999.90;999.90;;;12.50;99.90;;;;;;5019316;28;20467;-69
2022/11/02 07:24:18;;;;;;;1999.90;999.90;;;12.60;99.90;;;;;;5022420;28;20845;-68
2022/11/02 07:26:47;;;;;;;1999.90;999.90;;;12.70;99.90;;;;;;5018967;28;21449;-67
2022/11/02 07:29:14;;;;;;;1999.90;999.90;;;12.80;99.90;;;;;;5022599;28;20823;-69
2022/11/02 07:31:41;;;;;;;1999.90;999.90;;;12.80;99.90;;;;;;5009975;28;20522;-70
2022/11/02 07:34:07;;;;;;;1999.90;999.90;;;12.90;99.90;;;;;;5012356;28;20447;-73
2022/11/02 07:36:34;;;;;;;1999.90;999.90;;;12.80;99.90;;;;;;5021255;28;20494;-70
2022/11/02 07:39:01;;;;;;;1999.90;999.90;;;12.70;99.90;;;;;;5030588;28;20446;-69
2022/11/02 07:41:29;;;;;;;1999.90;999.90;;;12.80;99.90;;;;;;5024192;28;20466;-71
2022/11/02 07:43:56;;;;;;;1999.90;999.90;;;12.80;99.90;;;;;;5010739;28;20487;-71
2022/11/02 07:46:23;;;;;;;1999.90;999.90;;;12.90;99.90;;;;;;5010823;28;20484;-71
2022/11/02 07:48:50;;;;;;;1999.90;999.90;;;13.10;99.90;;;;;;5014534;28;20468;-70
2022/11/02 07:51:17;;;;;;;1999.90;999.90;;;13.30;99.90;;;;;;5012002;28;20967;-72
2022/11/02 07:53:44;;;;;;;1999.90;999.90;;;13.40;99.90;;;;;;5019748;28;20866;-73
2022/11/02 07:56:11;;;;;;;1999.90;999.90;;;13.50;99.90;;;;;;5008445;28;20972;-70
2022/11/02 07:58:39;;;;;;;1999.90;999.90;;;13.60;99.90;;;;;;5010954;28;20459;-70
2022/11/02 08:01:06;;;;;;;1999.90;999.90;;;13.60;99.90;;;;;;5008927;28;20471;-69
2022/11/02 08:03:33;;;;;;;1999.90;999.90;;;13.50;99.90;;;;;;5008606;28;20476;-69
2022/11/02 08:06:01;;;;;;;1999.90;999.90;;;13.30;99.90;;;;;;5010595;28;20479;-72
2022/11/02 08:08:28;;;;;;;1999.90;999.90;;;13.30;99.90;;;;;;5008336;28;20510;-72
2022/11/02 08:10:55;;;;;;;1999.90;999.90;;;13.20;99.90;;;;;;5008116;28;20967;-69
2022/11/02 08:13:24;;;;;;;1999.90;999.90;;;13.30;99.90;;;;;;5011062;28;20452;-69
2022/11/02 08:15:54;;;;;;;1999.90;999.90;;;13.20;99.90;;;;;;5012790;28;20570;-68
2022/11/02 08:18:22;;;;;;;1999.90;999.90;;;13.30;99.90;;;;;;5011373;28;20476;-65
2022/11/02 08:20:49;;;;;;;1999.90;999.90;;;13.30;99.90;;;;;;5008418;28;20479;-67
2022/11/02 08:23:18;;;;;;;1999.90;999.90;;;13.30;99.90;;;;;;5010668;28;20480;-67
2022/11/02 08:25:46;;;;;;;1999.90;999.90;;;13.40;99.90;;;;;;5009326;28;21288;-67
2022/11/02 08:28:15;;;;;;;1999.90;999.90;;;13.40;99.90;;;;;;5010051;28;20487;-68
2022/11/02 08:30:42;;;;;;;1999.90;999.90;;;13.60;99.90;;;;;;5007125;28;20464;-70
2022/11/02 08:33:14;;;;;;;1999.90;999.90;;;13.90;99.90;;;;;;5008909;28;20452;-68
2022/11/02 08:35:42;;;;;;;1999.90;999.90;;;14.00;99.90;;;;;;5008876;28;20869;-68
2022/11/02 08:38:10;;;;;;;1999.90;999.90;;;14.00;99.90;;;;;;5013236;28;20452;-67
2022/11/02 08:40:38;;;;;;;1999.90;999.90;;;14.00;99.90;;;;;;5008499;28;20456;-68
2022/11/02 08:43:06;;;;;;;1999.90;999.90;;;14.10;99.90;;;;;;5011363;28;20487;-69
2022/11/02 08:45:35;;;;;;;1999.90;999.90;;;14.10;99.90;;;;;;5009632;28;21186;-68
2022/11/02 08:48:02;;;;;;;1999.90;999.90;;;14.30;99.90;;;;;;5012531;28;20467;-68
2022/11/02 08:50:30;;;;;;;1999.90;999.90;;;14.30;99.90;;;;;;5010091;28;20460;-69
2022/11/02 08:52:57;;;;;;;1999.90;999.90;;;14.30;99.90;;;;;;5009466;28;20842;-69
2022/11/02 08:55:24;;;;;;;1999.90;999.90;;;14.30;99.90;;;;;;5010167;28;21041;-68
2022/11/02 08:57:52;;;;;;;1999.90;999.90;;;14.30;99.90;;;;;;5010722;28;20855;-68
2022/11/02 09:00:20;;;;;;;1999.90;999.90;;;14.30;99.90;;;;;;5010601;28;20956;-68
2022/11/02 09:02:59;;;;;;;1999.90;999.90;;;14.30;99.90;;;;;;5008528;28;20463;-68
2022/11/02 09:05:26;;;;;;;1999.90;999.90;;;14.20;99.90;;;;;;5011714;28;20495;-68
2022/11/02 09:07:58;;;;;;;1999.90;999.90;;;14.30;99.90;;;;;;5009237;28;20468;-68
2022/11/02 09:10:25;;;;;;;1999.90;999.90;;;14.50;99.90;;;;;;5009759;28;20463;-71
2022/11/02 09:12:52;;;;;;;1999.90;999.90;;;14.80;99.90;;;;;;5006843;28;20473;-67
2022/11/02 09:15:19;;;;;;;1999.90;999.90;;;15.00;99.90;;;;;;5008515;28;20464;-70
2022/11/02 09:17:47;;;;;;;1999.90;999.90;;;15.10;99.90;;;;;;5007768;28;20464;-71
2022/11/02 09:20:15;;;;;;;1999.90;999.90;;;15.10;99.90;;;;;;5008332;28;20523;-68
2022/11/02 09:22:42;;;;;;;1999.90;999.90;;;14.90;99.90;;;;;;5007336;28;20464;-70
2022/11/02 09:25:11;;;;;;;1999.90;999.90;;;14.80;99.90;;;;;;5009213;28;20460;-68
2022/11/02 09:27:38;;;;;;;1999.90;999.90;;;14.80;99.90;;;;;;5007707;28;20470;-68
2022/11/02 09:30:06;;;;;;;1999.90;999.90;;;14.80;99.90;;;;;;5008979;28;20459;-67
2022/11/02 09:32:33;;;;;;;1999.90;999.90;;;14.70;99.90;;;;;;5011583;28;20555;-71
2022/11/02 09:35:00;;;;;;;1999.90;999.90;;;14.70;99.90;;;;;;5012991;28;20514;-69
2022/11/02 09:37:27;;;;;;;1999.90;999.90;;;14.60;99.90;;;;;;5011542;28;20903;-69
2022/11/02 09:39:53;;;;;;;1999.90;999.90;;;14.60;99.90;;;;;;5016636;28;20511;-70
2022/11/02 09:42:26;;;;;;;1999.90;999.90;;;14.80;99.90;;;;;;5012513;28;20472;-67
2022/11/02 09:44:58;;;;;;;1999.90;999.90;;;14.80;99.90;;;;;;5011115;28;20488;-70
2022/11/02 09:47:27;;;;;;;1999.90;999.90;;;15.00;99.90;;;;;;5008035;28;20483;-73
2022/11/02 09:49:56;;;;;;;1999.90;999.90;;;15.10;99.90;;;;;;5009036;28;20472;-70
2022/11/02 09:52:28;;;;;;;1999.90;999.90;;;15.10;99.90;;;;;;5012532;28;20467;-70
2022/11/02 09:54:58;;;;;;;1999.90;999.90;;;15.00;99.90;;;;;;5012110;28;20520;-67
2022/11/02 09:57:29;;;;;;;1999.90;999.90;;;15.10;99.90;;;;;;5007544;28;20490;-69
2022/11/02 09:59:56;;;;;;;1999.90;999.90;;;15.10;99.90;;;;;;5010805;28;20474;-68
2022/11/02 10:02:34;;;;;;;1999.90;999.90;;;15.00;99.90;;;;;;5012357;28;20899;-67
2022/11/02 10:05:27;;;;;;;1999.90;999.90;;;15.10;99.90;;;;;;5009579;28;20494;-69
2022/11/02 10:08:17;;;;;;;1999.90;999.90;;;15.20;99.90;;;;;;5010612;28;20560;-70
2022/11/02 10:10:55;;;;;;;1999.90;999.90;;;15.20;99.90;;;;;;5008673;28;20464;-70
2022/11/02 10:13:34;;;;;;;1999.90;999.90;;;15.20;99.90;;;;;;5011431;28;20448;-69
2022/11/02 10:16:07;;;;;;;1999.90;999.90;;;15.30;99.90;;;;;;5012965;28;20475;-70
2022/11/02 10:18:35;;;;;;;1999.90;999.90;;;15.30;99.90;;;;;;5010659;28;20452;-67
2022/11/02 10:21:07;;;;;;;1999.90;999.90;;;15.20;99.90;;;;;;5017415;28;20464;-70
2022/11/02 10:23:36;;;;;;;1999.90;999.90;;;15.10;99.90;;;;;;5014071;28;20468;-71
2022/11/02 10:26:03;;;;;;;1999.90;999.90;;;15.20;99.90;;;;;;5015018;28;20857;-68
2022/11/02 10:28:36;;;;;;;1999.90;999.90;;;15.30;99.90;;;;;;5008907;28;20460;-69
2022/11/02 10:31:03;;;;;;;1999.90;999.90;;;15.50;99.90;;;;;;5008765;28;20982;-70
2022/11/02 10:33:31;;;;;;;1999.90;999.90;;;15.50;99.90;;;;;;5009971;28;20456;-66
2022/11/02 10:36:22;;;;;;;1999.90;999.90;;;15.40;99.90;;;;;;5016755;28;20483;-67
2022/11/02 10:39:02;;;;;;;1999.90;999.90;;;15.30;99.90;;;;;;5005701;28;20456;-69
2022/11/02 10:41:53;;;;;;;1999.90;999.90;;;15.40;99.90;;;;;;5017376;28;20454;-69
2022/11/02 10:44:43;;;;;;;1999.90;999.90;;;15.40;99.90;;;;;;5027775;28;20479;-69
2022/11/02 10:47:15;;;;;;;1999.90;999.90;;;15.30;99.90;;;;;;5021536;28;20468;-68
2022/11/02 10:50:06;;;;;;;1999.90;999.90;;;15.40;99.90;;;;;;5033642;28;20475;-68
2022/11/02 10:52:36;;;;;;;1999.90;999.90;;;15.60;99.90;;;;;;5020228;28;20459;-68
2022/11/02 10:55:03;;;;;;;1999.90;999.90;;;15.60;99.90;;;;;;5028873;28;21101;-68
2022/11/02 10:57:33;;;;;;;1999.90;999.90;;;15.90;99.90;;;;;;5025997;28;20447;-68
2022/11/02 11:00:24;;;;;;;1999.90;999.90;;;16.00;99.90;;;;;;5033307;28;20451;-69
2022/11/02 11:03:06;;;;;;;1999.90;999.90;;;15.90;99.90;;;;;;5032993;28;20453;-68
2022/11/02 11:05:35;;;;;;;1999.90;999.90;;;15.80;99.90;;;;;;5025753;28;20503;-69
2022/11/02 11:08:03;;;;;;;1999.90;999.90;;;15.70;99.90;;;;;;5030282;28;20533;-70
2022/11/02 11:10:36;;;;;;;1999.90;999.90;;;15.60;99.90;;;;;;5034360;28;20501;-70
2022/11/02 11:13:03;;;;;;;1999.90;999.90;;;15.50;99.90;;;;;;5032948;28;20447;-68
2022/11/02 11:15:33;;;;;;;1999.90;999.90;;;15.60;99.90;;;;;;5025532;28;20476;-69
2022/11/02 11:18:09;;;;;;;1999.90;999.90;;;15.80;99.90;;;;;;5013547;28;20471;-69
2022/11/02 11:20:38;;;;;;;1999.90;999.90;;;15.80;99.90;;;;;;5015341;28;20467;-69
2022/11/02 11:23:23;;;;;;;1999.90;999.90;;;15.80;99.90;;;;;;5021014;28;20459;-74
2022/11/02 11:25:58;;;;;;;1999.90;999.90;;;15.80;99.90;;;;;;5010083;28;20501;-70
2022/11/02 11:28:27;;;;;;;1999.90;999.90;;;15.80;99.90;;;;;;5011422;28;20465;-68
2022/11/02 11:31:12;;;;;;;1999.90;999.90;;;15.80;99.90;;;;;;5023346;28;20459;-67
2022/11/02 11:33:44;;;;;;;1999.90;999.90;;;15.80;99.90;;;;;;5016512;28;20451;-67
2022/11/02 11:36:25;;;;;;;1999.90;999.90;;;16.00;99.90;;;;;;5017745;28;20498;-68
2022/11/02 11:38:53;;;;;;;1999.90;999.90;;;16.10;99.90;;;;;;5010212;28;20978;-68
2022/11/02 11:41:20;;;;;;;1999.90;999.90;;;16.20;99.90;;;;;;5014299;28;20464;-68
2022/11/02 11:43:48;;;;;;;1999.90;999.90;;;16.10;99.90;;;;;;5012078;28;20484;-68
2022/11/02 11:46:17;;;;;;;1999.90;999.90;;;16.10;99.90;;;;;;5011734;28;20476;-71
2022/11/02 11:48:48;;;;;;;1999.90;999.90;;;16.00;99.60;;;;;;5019034;28;20522;-70
2022/11/02 11:51:27;;;;;;;1999.90;999.90;;;16.00;99.30;;;;;;5020864;28;20569;-71
2022/11/02 11:54:16;;;;;;;1999.90;999.90;;;16.10;98.40;;;;;;5007912;28;20483;-70
2022/11/02 11:56:43;;;;;;;1999.90;999.90;;;16.20;98.30;;;;;;5005330;28;20484;-70
2022/11/02 11:59:24;;;;;;;1999.90;999.90;;;16.30;97.90;;;;;;5012375;28;20552;-70
2022/11/02 12:01:56;;;;;;;1999.90;999.90;;;16.40;97.70;;;;;;5014788;28;20567;-67
2022/11/02 12:04:37;;;;;;;1999.90;999.90;;;16.50;97.80;;;;;;5009066;28;20518;-69
2022/11/02 12:07:17;;;;;;;1999.90;999.90;;;16.30;97.50;;;;;;5012737;28;20514;-69
2022/11/02 12:09:49;;;;;;;1999.90;999.90;;;16.40;97.80;;;;;;5010058;28;20470;-69
2022/11/02 12:12:29;;;;;;;1999.90;999.90;;;16.30;97.50;;;;;;5009043;28;20460;-70
2022/11/02 12:15:06;;;;;;;1999.90;999.90;;;16.30;98.10;;;;;;5008027;28;20840;-68
2022/11/02 12:17:54;;;;;;;1999.90;999.90;;;16.50;97.10;;;;;;5015214;28;20880;-70
2022/11/02 12:20:38;;;;;;;1999.90;999.90;;;16.40;97.50;;;;;;5012540;28;20458;-70
2022/11/02 12:23:16;;;;;;;1999.90;999.90;;;16.30;96.80;;;;;;5010955;28;20463;-69
2022/11/02 12:25:52;;;;;;;1999.90;999.90;;;16.30;97.00;;;;;;5004004;28;20538;-69